sensor_id;sensor_type;location;lat;lon;timestamp;pressure;altitude;pressure_sealevel;temperature;humidity
64053;BME280;50299;49.524;8.536;2023-05-23T00:01:58;100341.25;;;15.22;72.15
64053;BME280;50299;49.524;8.536;2023-05-23T00:04:25;100353.50;;;15.17;71.72
64053;BME280;50299;49.524;8.536;2023-05-23T00:06:52;100348.84;;;15.05;70.94
64053;BME280;50299;49.524;8.536;2023-05-23T00:09:19;100338.53;;;14.90;71.65
64053;BME280;50299;49.524;8.536;2023-05-23T00:11:46;100341.41;;;14.78;72.25
64053;BME280;50299;49.524;8.536;2023-05-23T00:14:15;100339.53;;;14.66;73.19
64053;BME280;50299;49.524;8.536;2023-05-23T00:16:42;100343.59;;;14.69;72.86
64053;BME280;50299;49.524;8.536;2023-05-23T00:19:10;100344.28;;;14.66;73.19
64053;BME280;50299;49.524;8.536;2023-05-23T00:21:45;100346.38;;;14.53;73.52
64053;BME280;50299;49.524;8.536;2023-05-23T00:24:13;100342.97;;;14.44;73.38
64053;BME280;50299;49.524;8.536;2023-05-23T00:26:44;100347.88;;;14.50;73.71
64053;BME280;50299;49.524;8.536;2023-05-23T00:29:11;100343.75;;;14.60;72.24
64053;BME280;50299;49.524;8.536;2023-05-23T00:31:44;100338.53;;;14.74;73.59
64053;BME280;50299;49.524;8.536;2023-05-23T00:34:15;100342.22;;;14.78;70.76
64053;BME280;50299;49.524;8.536;2023-05-23T00:36:44;100340.06;;;14.72;70.78
64053;BME280;50299;49.524;8.536;2023-05-23T00:39:16;100338.28;;;14.48;71.96
64053;BME280;50299;49.524;8.536;2023-05-23T00:41:48;100341.09;;;14.48;72.42
64053;BME280;50299;49.524;8.536;2023-05-23T00:44:17;100349.75;;;14.46;72.29
64053;BME280;50299;49.524;8.536;2023-05-23T00:46:49;100343.09;;;14.35;73.16
64053;BME280;50299;49.524;8.536;2023-05-23T00:49:16;100351.09;;;14.37;71.69
64053;BME280;50299;49.524;8.536;2023-05-23T00:51:45;100343.00;;;14.31;71.76
64053;BME280;50299;49.524;8.536;2023-05-23T00:54:12;100348.81;;;14.26;73.17
64053;BME280;50299;49.524;8.536;2023-05-23T00:56:39;100342.84;;;13.96;72.54
64053;BME280;50299;49.524;8.536;2023-05-23T00:59:06;100341.78;;;13.73;74.51
64053;BME280;50299;49.524;8.536;2023-05-23T01:01:33;100348.91;;;13.58;74.92
64053;BME280;50299;49.524;8.536;2023-05-23T01:04:03;100346.25;;;13.62;75.11
64053;BME280;50299;49.524;8.536;2023-05-23T01:06:30;100344.72;;;13.64;74.89
64053;BME280;50299;49.524;8.536;2023-05-23T01:08:58;100350.53;;;13.59;75.63
64053;BME280;50299;49.524;8.536;2023-05-23T01:11:50;100351.19;;;13.68;74.92
64053;BME280;50299;49.524;8.536;2023-05-23T01:14:28;100355.66;;;13.73;74.96
64053;BME280;50299;49.524;8.536;2023-05-23T01:17:02;100351.19;;;13.68;73.87
64053;BME280;50299;49.524;8.536;2023-05-23T01:22:15;100356.63;;;13.65;73.47
64053;BME280;50299;49.524;8.536;2023-05-23T01:24:54;100359.06;;;13.66;73.63
64053;BME280;50299;49.524;8.536;2023-05-23T01:27:42;100359.75;;;13.63;73.59
64053;BME280;50299;49.524;8.536;2023-05-23T01:30:12;100357.00;;;13.63;73.79
64053;BME280;50299;49.524;8.536;2023-05-23T01:32:39;100354.81;;;13.56;73.88
64053;BME280;50299;49.524;8.536;2023-05-23T01:35:06;100355.84;;;13.40;73.17
64053;BME280;50299;49.524;8.536;2023-05-23T01:37:33;100359.56;;;13.31;73.08
64053;BME280;50299;49.524;8.536;2023-05-23T01:40:05;100365.41;;;13.14;74.05
64053;BME280;50299;49.524;8.536;2023-05-23T01:42:32;100367.13;;;13.06;74.27
64053;BME280;50299;49.524;8.536;2023-05-23T01:44:59;100367.13;;;12.94;74.87
64053;BME280;50299;49.524;8.536;2023-05-23T01:47:26;100370.53;;;12.30;76.10
64053;BME280;50299;49.524;8.536;2023-05-23T01:49:53;100377.84;;;12.47;77.59
64053;BME280;50299;49.524;8.536;2023-05-23T01:52:21;100367.31;;;12.52;76.29
64053;BME280;50299;49.524;8.536;2023-05-23T01:54:49;100370.63;;;12.33;76.83
64053;BME280;50299;49.524;8.536;2023-05-23T01:57:16;100372.00;;;12.27;76.76
64053;BME280;50299;49.524;8.536;2023-05-23T01:59:45;100376.44;;;12.07;76.96
64053;BME280;50299;49.524;8.536;2023-05-23T02:02:11;100371.56;;;12.04;77.09
64053;BME280;50299;49.524;8.536;2023-05-23T02:04:38;100381.22;;;12.19;76.61
64053;BME280;50299;49.524;8.536;2023-05-23T02:07:04;100384.19;;;12.47;77.96
64053;BME280;50299;49.524;8.536;2023-05-23T02:09:31;100388.75;;;12.76;81.26
64053;BME280;50299;49.524;8.536;2023-05-23T02:11:57;100388.09;;;13.04;76.25
64053;BME280;50299;49.524;8.536;2023-05-23T02:14:25;100391.78;;;13.08;74.07
64053;BME280;50299;49.524;8.536;2023-05-23T02:16:53;100391.88;;;13.12;74.66
64053;BME280;50299;49.524;8.536;2023-05-23T02:19:20;100398.56;;;13.23;75.21
64053;BME280;50299;49.524;8.536;2023-05-23T02:21:46;100388.16;;;13.32;74.68
64053;BME280;50299;49.524;8.536;2023-05-23T02:24:13;100393.34;;;13.46;75.02
64053;BME280;50299;49.524;8.536;2023-05-23T02:26:39;100389.28;;;13.55;75.25
64053;BME280;50299;49.524;8.536;2023-05-23T02:29:06;100395.50;;;13.65;75.16
64053;BME280;50299;49.524;8.536;2023-05-23T02:31:33;100409.25;;;13.73;74.49
64053;BME280;50299;49.524;8.536;2023-05-23T02:34:00;100408.81;;;13.71;72.65
64053;BME280;50299;49.524;8.536;2023-05-23T02:36:26;100407.06;;;13.79;73.16
64053;BME280;50299;49.524;8.536;2023-05-23T02:38:53;100408.94;;;13.75;72.45
64053;BME280;50299;49.524;8.536;2023-05-23T02:41:19;100409.53;;;13.56;72.22
64053;BME280;50299;49.524;8.536;2023-05-23T02:43:46;100407.94;;;13.30;71.50
64053;BME280;50299;49.524;8.536;2023-05-23T02:46:13;100412.22;;;13.28;73.79
64053;BME280;50299;49.524;8.536;2023-05-23T02:48:39;100413.13;;;13.32;72.77
64053;BME280;50299;49.524;8.536;2023-05-23T02:51:06;100418.78;;;13.36;71.35
64053;BME280;50299;49.524;8.536;2023-05-23T02:53:32;100415.22;;;13.35;71.91
64053;BME280;50299;49.524;8.536;2023-05-23T02:55:59;100413.13;;;13.20;72.12
64053;BME280;50299;49.524;8.536;2023-05-23T02:58:25;100412.44;;;12.86;71.03
64053;BME280;50299;49.524;8.536;2023-05-23T03:00:52;100417.97;;;12.62;73.82
64053;BME280;50299;49.524;8.536;2023-05-23T03:03:18;100425.00;;;12.26;75.49
64053;BME280;50299;49.524;8.536;2023-05-23T03:05:45;100423.13;;;11.97;77.18
64053;BME280;50299;49.524;8.536;2023-05-23T03:08:11;100417.56;;;12.05;77.57
64053;BME280;50299;49.524;8.536;2023-05-23T03:10:38;100424.19;;;12.25;78.60
64053;BME280;50299;49.524;8.536;2023-05-23T03:13:04;100424.59;;;12.48;78.45
64053;BME280;50299;49.524;8.536;2023-05-23T03:15:31;100427.50;;;12.52;76.63
64053;BME280;50299;49.524;8.536;2023-05-23T03:17:57;100430.72;;;12.54;77.26
64053;BME280;50299;49.524;8.536;2023-05-23T03:20:24;100426.19;;;12.70;77.68
64053;BME280;50299;49.524;8.536;2023-05-23T03:22:50;100424.91;;;12.68;76.14
64053;BME280;50299;49.524;8.536;2023-05-23T03:25:17;100426.41;;;12.65;77.46
64053;BME280;50299;49.524;8.536;2023-05-23T03:27:43;100438.38;;;12.57;77.25
64053;BME280;50299;49.524;8.536;2023-05-23T03:30:17;100429.09;;;12.41;77.68
64053;BME280;50299;49.524;8.536;2023-05-23T03:32:44;100435.13;;;12.88;77.42
64053;BME280;50299;49.524;8.536;2023-05-23T03:35:11;100434.06;;;12.80;76.76
64053;BME280;50299;49.524;8.536;2023-05-23T03:37:38;100434.31;;;12.88;76.30
64053;BME280;50299;49.524;8.536;2023-05-23T03:40:05;100432.94;;;13.06;75.40
64053;BME280;50299;49.524;8.536;2023-05-23T03:42:32;100433.50;;;13.24;75.11
64053;BME280;50299;49.524;8.536;2023-05-23T03:44:59;100440.69;;;13.37;73.74
64053;BME280;50299;49.524;8.536;2023-05-23T03:47:25;100441.94;;;13.40;74.26
64053;BME280;50299;49.524;8.536;2023-05-23T03:49:52;100443.22;;;13.42;73.80
64053;BME280;50299;49.524;8.536;2023-05-23T03:52:18;100447.84;;;13.50;74.05
64053;BME280;50299;49.524;8.536;2023-05-23T03:54:45;100447.38;;;13.48;71.97
64053;BME280;50299;49.524;8.536;2023-05-23T03:57:12;100447.50;;;13.27;72.11
64053;BME280;50299;49.524;8.536;2023-05-23T03:59:38;100443.47;;;13.25;72.61
64053;BME280;50299;49.524;8.536;2023-05-23T04:02:07;100445.97;;;12.93;73.85
64053;BME280;50299;49.524;8.536;2023-05-23T04:04:34;100447.28;;;12.96;73.77
64053;BME280;50299;49.524;8.536;2023-05-23T04:07:01;100458.66;;;12.70;73.88
64053;BME280;50299;49.524;8.536;2023-05-23T04:09:27;100461.31;;;12.78;74.32
64053;BME280;50299;49.524;8.536;2023-05-23T04:11:54;100459.50;;;12.95;76.73
64053;BME280;50299;49.524;8.536;2023-05-23T04:14:21;100459.75;;;13.14;72.46
64053;BME280;50299;49.524;8.536;2023-05-23T04:16:49;100462.16;;;13.16;73.15
64053;BME280;50299;49.524;8.536;2023-05-23T04:19:15;100470.63;;;13.19;71.36
64053;BME280;50299;49.524;8.536;2023-05-23T04:21:42;100476.41;;;13.14;72.63
64053;BME280;50299;49.524;8.536;2023-05-23T04:24:11;100476.88;;;13.28;73.32
64053;BME280;50299;49.524;8.536;2023-05-23T04:26:38;100471.09;;;13.46;72.33
64053;BME280;50299;49.524;8.536;2023-05-23T04:29:05;100478.94;;;13.44;71.44
64053;BME280;50299;49.524;8.536;2023-05-23T04:31:31;100482.66;;;13.48;71.01
64053;BME280;50299;49.524;8.536;2023-05-23T04:33:59;100485.19;;;13.65;71.08
64053;BME280;50299;49.524;8.536;2023-05-23T04:36:27;100485.13;;;13.62;70.20
64053;BME280;50299;49.524;8.536;2023-05-23T04:38:55;100479.78;;;13.56;70.28
64053;BME280;50299;49.524;8.536;2023-05-23T04:41:21;100489.75;;;13.58;69.33
64053;BME280;50299;49.524;8.536;2023-05-23T04:43:49;100490.31;;;13.51;69.21
64053;BME280;50299;49.524;8.536;2023-05-23T04:46:19;100488.56;;;13.71;68.64
64053;BME280;50299;49.524;8.536;2023-05-23T04:48:52;100505.31;;;13.99;68.26
64053;BME280;50299;49.524;8.536;2023-05-23T04:51:20;100508.69;;;13.80;65.62
64053;BME280;50299;49.524;8.536;2023-05-23T04:53:48;100511.22;;;13.85;68.18
64053;BME280;50299;49.524;8.536;2023-05-23T04:56:15;100511.97;;;14.10;66.66
64053;BME280;50299;49.524;8.536;2023-05-23T04:58:46;100510.78;;;14.23;65.12
64053;BME280;50299;49.524;8.536;2023-05-23T05:01:13;100512.44;;;14.52;65.76
64053;BME280;50299;49.524;8.536;2023-05-23T05:03:39;100515.22;;;14.52;64.52
64053;BME280;50299;49.524;8.536;2023-05-23T05:06:07;100515.84;;;14.90;63.65
64053;BME280;50299;49.524;8.536;2023-05-23T05:08:33;100516.47;;;14.99;64.65
64053;BME280;50299;49.524;8.536;2023-05-23T05:11:00;100517.81;;;14.89;62.94
64053;BME280;50299;49.524;8.536;2023-05-23T05:13:26;100522.66;;;13.96;64.36
64053;BME280;50299;49.524;8.536;2023-05-23T05:15:53;100525.94;;;13.73;65.92
64053;BME280;50299;49.524;8.536;2023-05-23T05:18:20;100529.16;;;13.39;65.59
64053;BME280;50299;49.524;8.536;2023-05-23T05:20:46;100526.91;;;14.18;63.33
64053;BME280;50299;49.524;8.536;2023-05-23T05:23:16;100532.06;;;14.44;62.41
64053;BME280;50299;49.524;8.536;2023-05-23T05:25:43;100533.56;;;13.76;63.52
64053;BME280;50299;49.524;8.536;2023-05-23T05:28:09;100534.88;;;13.54;62.82
64053;BME280;50299;49.524;8.536;2023-05-23T05:30:36;100540.63;;;13.37;62.57
64053;BME280;50299;49.524;8.536;2023-05-23T05:33:04;100538.09;;;13.56;63.23
64053;BME280;50299;49.524;8.536;2023-05-23T05:35:34;100544.13;;;13.59;66.23
64053;BME280;50299;49.524;8.536;2023-05-23T05:38:03;100548.41;;;13.68;62.83
64053;BME280;50299;49.524;8.536;2023-05-23T05:40:33;100558.22;;;13.41;63.02
64053;BME280;50299;49.524;8.536;2023-05-23T05:43:00;100560.00;;;13.58;61.85
64053;BME280;50299;49.524;8.536;2023-05-23T05:45:26;100559.47;;;14.05;61.53
64053;BME280;50299;49.524;8.536;2023-05-23T05:47:53;100560.13;;;14.26;61.25
64053;BME280;50299;49.524;8.536;2023-05-23T05:50:20;100561.84;;;14.31;61.55
64053;BME280;50299;49.524;8.536;2023-05-23T05:52:47;100558.66;;;14.57;60.76
64053;BME280;50299;49.524;8.536;2023-05-23T05:55:17;100567.88;;;14.73;61.70
64053;BME280;50299;49.524;8.536;2023-05-23T05:57:44;100567.47;;;14.59;58.89
64053;BME280;50299;49.524;8.536;2023-05-23T06:00:13;100567.69;;;14.14;59.98
64053;BME280;50299;49.524;8.536;2023-05-23T06:02:41;100570.94;;;14.03;60.64
64053;BME280;50299;49.524;8.536;2023-05-23T06:05:13;100586.47;;;13.55;63.12
64053;BME280;50299;49.524;8.536;2023-05-23T06:07:42;100579.63;;;13.90;62.76
64053;BME280;50299;49.524;8.536;2023-05-23T06:10:09;100584.72;;;14.00;62.79
64053;BME280;50299;49.524;8.536;2023-05-23T06:12:42;100592.13;;;14.20;59.37
64053;BME280;50299;49.524;8.536;2023-05-23T06:15:08;100590.25;;;14.24;62.14
64053;BME280;50299;49.524;8.536;2023-05-23T06:17:35;100591.88;;;14.25;61.59
64053;BME280;50299;49.524;8.536;2023-05-23T06:20:02;100588.66;;;14.11;62.12
64053;BME280;50299;49.524;8.536;2023-05-23T06:22:30;100594.41;;;14.18;60.50
64053;BME280;50299;49.524;8.536;2023-05-23T06:24:56;100595.00;;;14.36;61.81
64053;BME280;50299;49.524;8.536;2023-05-23T06:27:23;100598.13;;;14.35;59.12
64053;BME280;50299;49.524;8.536;2023-05-23T06:29:50;100599.53;;;14.41;60.60
64053;BME280;50299;49.524;8.536;2023-05-23T06:32:17;100601.06;;;14.66;58.71
64053;BME280;50299;49.524;8.536;2023-05-23T06:34:43;100606.97;;;13.51;59.74
64053;BME280;50299;49.524;8.536;2023-05-23T06:37:10;100599.44;;;13.51;60.03
64053;BME280;50299;49.524;8.536;2023-05-23T06:39:40;100604.19;;;13.88;60.64
64053;BME280;50299;49.524;8.536;2023-05-23T06:42:08;100611.50;;;13.80;60.54
64053;BME280;50299;49.524;8.536;2023-05-23T06:44:35;100615.50;;;13.46;59.86
64053;BME280;50299;49.524;8.536;2023-05-23T06:47:02;100613.69;;;13.99;59.26
64053;BME280;50299;49.524;8.536;2023-05-23T06:49:31;100623.78;;;13.21;59.87
64053;BME280;50299;49.524;8.536;2023-05-23T06:51:57;100629.69;;;13.44;59.78
64053;BME280;50299;49.524;8.536;2023-05-23T06:54:24;100629.38;;;13.46;59.63
64053;BME280;50299;49.524;8.536;2023-05-23T06:56:50;100631.03;;;13.14;61.07
64053;BME280;50299;49.524;8.536;2023-05-23T06:59:20;100640.94;;;13.48;61.11
64053;BME280;50299;49.524;8.536;2023-05-23T07:01:46;100642.97;;;13.96;58.25
64053;BME280;50299;49.524;8.536;2023-05-23T07:04:13;100646.81;;;13.92;58.69
64053;BME280;50299;49.524;8.536;2023-05-23T07:06:39;100644.47;;;14.06;57.56
64053;BME280;50299;49.524;8.536;2023-05-23T07:09:06;100646.44;;;13.93;56.83
64053;BME280;50299;49.524;8.536;2023-05-23T07:11:32;100647.97;;;14.15;56.73
64053;BME280;50299;49.524;8.536;2023-05-23T07:14:00;100645.97;;;14.28;56.50
64053;BME280;50299;49.524;8.536;2023-05-23T07:16:27;100647.38;;;14.34;57.72
64053;BME280;50299;49.524;8.536;2023-05-23T07:18:53;100653.59;;;14.55;58.20
64053;BME280;50299;49.524;8.536;2023-05-23T07:21:20;100658.47;;;13.73;56.75
64053;BME280;50299;49.524;8.536;2023-05-23T07:23:46;100658.59;;;12.98;59.76
64053;BME280;50299;49.524;8.536;2023-05-23T07:26:13;100662.44;;;13.39;58.96
64053;BME280;50299;49.524;8.536;2023-05-23T07:28:41;100663.00;;;13.90;58.01
64053;BME280;50299;49.524;8.536;2023-05-23T07:31:07;100653.41;;;14.24;55.75
64053;BME280;50299;49.524;8.536;2023-05-23T07:33:35;100656.19;;;14.76;56.16
64053;BME280;50299;49.524;8.536;2023-05-23T07:36:01;100655.97;;;14.82;53.52
64053;BME280;50299;49.524;8.536;2023-05-23T07:38:28;100660.78;;;14.85;54.01
64053;BME280;50299;49.524;8.536;2023-05-23T07:40:54;100646.03;;;14.56;51.75
64053;BME280;50299;49.524;8.536;2023-05-23T07:43:37;100657.09;;;14.80;54.67
64053;BME280;50299;49.524;8.536;2023-05-23T07:46:03;100662.53;;;14.49;54.06
64053;BME280;50299;49.524;8.536;2023-05-23T07:48:30;100652.19;;;14.62;53.14
64053;BME280;50299;49.524;8.536;2023-05-23T07:50:57;100653.50;;;14.52;54.34
64053;BME280;50299;49.524;8.536;2023-05-23T07:53:23;100648.53;;;14.33;53.19
64053;BME280;50299;49.524;8.536;2023-05-23T07:55:51;100653.97;;;14.05;53.35
64053;BME280;50299;49.524;8.536;2023-05-23T07:58:17;100662.88;;;14.47;52.88
64053;BME280;50299;49.524;8.536;2023-05-23T08:00:44;100659.72;;;15.01;53.07
64053;BME280;50299;49.524;8.536;2023-05-23T08:03:11;100661.63;;;14.08;52.43
64053;BME280;50299;49.524;8.536;2023-05-23T08:05:38;100668.44;;;14.47;53.74
64053;BME280;50299;49.524;8.536;2023-05-23T08:08:05;100665.06;;;14.54;51.93
64053;BME280;50299;49.524;8.536;2023-05-23T08:10:31;100658.75;;;14.82;53.12
64053;BME280;50299;49.524;8.536;2023-05-23T08:12:58;100667.09;;;14.82;51.80
64053;BME280;50299;49.524;8.536;2023-05-23T08:15:26;100668.63;;;15.07;51.54
64053;BME280;50299;49.524;8.536;2023-05-23T08:17:54;100673.63;;;15.14;51.67
64053;BME280;50299;49.524;8.536;2023-05-23T08:20:25;100667.50;;;14.96;51.29
64053;BME280;50299;49.524;8.536;2023-05-23T08:23:00;100663.94;;;15.23;51.70
64053;BME280;50299;49.524;8.536;2023-05-23T08:25:27;100669.88;;;15.38;49.68
64053;BME280;50299;49.524;8.536;2023-05-23T08:27:56;100667.31;;;15.61;50.79
64053;BME280;50299;49.524;8.536;2023-05-23T08:30:24;100666.28;;;15.97;50.46
64053;BME280;50299;49.524;8.536;2023-05-23T08:32:55;100668.31;;;15.68;50.17
64053;BME280;50299;49.524;8.536;2023-05-23T08:35:22;100666.22;;;15.65;50.84
64053;BME280;50299;49.524;8.536;2023-05-23T08:37:49;100666.78;;;16.02;50.68
64053;BME280;50299;49.524;8.536;2023-05-23T08:40:20;100668.22;;;15.81;49.24
64053;BME280;50299;49.524;8.536;2023-05-23T08:42:50;100658.47;;;15.27;49.53
64053;BME280;50299;49.524;8.536;2023-05-23T08:45:20;100663.41;;;15.05;50.53
64053;BME280;50299;49.524;8.536;2023-05-23T08:47:47;100661.34;;;15.46;51.87
64053;BME280;50299;49.524;8.536;2023-05-23T08:50:17;100666.44;;;15.88;53.73
64053;BME280;50299;49.524;8.536;2023-05-23T08:52:53;100672.34;;;15.87;48.18
64053;BME280;50299;49.524;8.536;2023-05-23T08:55:23;100669.47;;;15.83;49.74
64053;BME280;50299;49.524;8.536;2023-05-23T08:57:54;100670.00;;;15.73;50.45
64053;BME280;50299;49.524;8.536;2023-05-23T09:00:26;100671.94;;;16.36;49.27
64053;BME280;50299;49.524;8.536;2023-05-23T09:02:53;100669.09;;;17.06;47.90
64053;BME280;50299;49.524;8.536;2023-05-23T09:05:20;100676.78;;;16.55;46.57
64053;BME280;50299;49.524;8.536;2023-05-23T09:07:48;100675.38;;;16.64;48.24
64053;BME280;50299;49.524;8.536;2023-05-23T09:10:19;100668.53;;;16.62;53.71
64053;BME280;50299;49.524;8.536;2023-05-23T09:12:47;100667.28;;;17.56;47.19
64053;BME280;50299;49.524;8.536;2023-05-23T09:15:14;100677.63;;;17.75;43.87
64053;BME280;50299;49.524;8.536;2023-05-23T09:17:43;100667.50;;;17.24;44.69
64053;BME280;50299;49.524;8.536;2023-05-23T09:20:15;100668.09;;;16.75;46.69
64053;BME280;50299;49.524;8.536;2023-05-23T09:22:45;100676.09;;;16.42;48.23
64053;BME280;50299;49.524;8.536;2023-05-23T09:25:13;100670.50;;;16.96;46.45
64053;BME280;50299;49.524;8.536;2023-05-23T09:27:41;100678.09;;;16.61;45.96
64053;BME280;50299;49.524;8.536;2023-05-23T09:30:12;100680.28;;;17.06;46.93
64053;BME280;50299;49.524;8.536;2023-05-23T09:32:39;100677.91;;;16.34;47.43
64053;BME280;50299;49.524;8.536;2023-05-23T09:35:07;100672.56;;;16.45;47.43
64053;BME280;50299;49.524;8.536;2023-05-23T09:37:40;100679.84;;;16.49;47.48
64053;BME280;50299;49.524;8.536;2023-05-23T09:40:10;100673.06;;;16.86;51.92
64053;BME280;50299;49.524;8.536;2023-05-23T09:42:41;100676.75;;;17.09;48.72
64053;BME280;50299;49.524;8.536;2023-05-23T09:45:13;100663.31;;;16.76;51.42
64053;BME280;50299;49.524;8.536;2023-05-23T09:47:53;100675.97;;;17.51;47.39
64053;BME280;50299;49.524;8.536;2023-05-23T09:50:20;100680.06;;;16.95;45.81
64053;BME280;50299;49.524;8.536;2023-05-23T09:52:49;100683.22;;;17.33;46.50
64053;BME280;50299;49.524;8.536;2023-05-23T09:55:16;100682.84;;;18.26;44.93
64053;BME280;50299;49.524;8.536;2023-05-23T09:57:43;100684.38;;;18.46;42.94
64053;BME280;50299;49.524;8.536;2023-05-23T10:00:11;100684.22;;;18.36;43.19
64053;BME280;50299;49.524;8.536;2023-05-23T10:03:06;100683.63;;;17.54;44.11
64053;BME280;50299;49.524;8.536;2023-05-23T10:05:46;100688.56;;;17.61;46.53
64053;BME280;50299;49.524;8.536;2023-05-23T10:08:19;100694.53;;;17.40;45.50
64053;BME280;50299;49.524;8.536;2023-05-23T10:13:27;100696.94;;;16.13;47.67
64053;BME280;50299;49.524;8.536;2023-05-23T10:18:55;100691.66;;;15.48;50.68
64053;BME280;50299;49.524;8.536;2023-05-23T10:21:28;100699.72;;;14.97;51.57
64053;BME280;50299;49.524;8.536;2023-05-23T10:23:58;100693.75;;;15.23;51.63
64053;BME280;50299;49.524;8.536;2023-05-23T10:26:26;100693.66;;;15.07;52.02
64053;BME280;50299;49.524;8.536;2023-05-23T10:28:56;100694.16;;;15.53;52.03
64053;BME280;50299;49.524;8.536;2023-05-23T10:31:25;100696.22;;;16.51;51.46
64053;BME280;50299;49.524;8.536;2023-05-23T10:34:01;100698.78;;;17.34;49.46
64053;BME280;50299;49.524;8.536;2023-05-23T10:36:37;100692.47;;;17.17;46.63
64053;BME280;50299;49.524;8.536;2023-05-23T10:39:20;100699.47;;;17.92;47.86
64053;BME280;50299;49.524;8.536;2023-05-23T10:41:55;100698.78;;;18.22;47.46
64053;BME280;50299;49.524;8.536;2023-05-23T10:44:28;100695.69;;;18.04;47.22
64053;BME280;50299;49.524;8.536;2023-05-23T10:46:59;100696.13;;;17.83;45.85
64053;BME280;50299;49.524;8.536;2023-05-23T10:49:51;100700.84;;;17.79;46.03
64053;BME280;50299;49.524;8.536;2023-05-23T10:52:23;100702.97;;;17.63;47.63
64053;BME280;50299;49.524;8.536;2023-05-23T10:54:54;100699.09;;;16.55;46.97
64053;BME280;50299;49.524;8.536;2023-05-23T10:57:24;100697.53;;;16.57;47.58
64053;BME280;50299;49.524;8.536;2023-05-23T10:59:54;100706.09;;;16.64;46.90
64053;BME280;50299;49.524;8.536;2023-05-23T11:02:26;100704.22;;;16.01;47.24
64053;BME280;50299;49.524;8.536;2023-05-23T11:05:19;100697.44;;;15.55;47.93
64053;BME280;50299;49.524;8.536;2023-05-23T11:08:06;100692.47;;;16.27;49.90
64053;BME280;50299;49.524;8.536;2023-05-23T11:10:59;100696.34;;;16.39;47.64
64053;BME280;50299;49.524;8.536;2023-05-23T11:21:53;100704.94;;;15.54;50.31
64053;BME280;50299;49.524;8.536;2023-05-23T11:24:20;100709.78;;;16.68;49.24
64053;BME280;50299;49.524;8.536;2023-05-23T11:26:57;100716.13;;;17.85;45.27
64053;BME280;50299;49.524;8.536;2023-05-23T11:29:31;100706.44;;;16.79;46.65
64053;BME280;50299;49.524;8.536;2023-05-23T11:31:58;100704.22;;;16.52;48.42
64053;BME280;50299;49.524;8.536;2023-05-23T11:34:27;100704.09;;;16.81;46.03
64053;BME280;50299;49.524;8.536;2023-05-23T11:36:54;100696.09;;;16.63;47.28
64053;BME280;50299;49.524;8.536;2023-05-23T11:39:22;100695.22;;;16.59;47.18
64053;BME280;50299;49.524;8.536;2023-05-23T11:42:02;100697.59;;;17.35;46.85
64053;BME280;50299;49.524;8.536;2023-05-23T11:44:29;100693.59;;;17.74;44.99
64053;BME280;50299;49.524;8.536;2023-05-23T11:47:00;100699.31;;;17.20;46.49
64053;BME280;50299;49.524;8.536;2023-05-23T11:49:30;100704.22;;;16.52;48.17
64053;BME280;50299;49.524;8.536;2023-05-23T11:51:58;100696.09;;;15.81;49.38
64053;BME280;50299;49.524;8.536;2023-05-23T11:54:25;100696.97;;;15.69;50.80
64053;BME280;50299;49.524;8.536;2023-05-23T11:56:54;100702.56;;;15.69;50.63
64053;BME280;50299;49.524;8.536;2023-05-23T11:59:23;100695.19;;;15.61;51.65
64053;BME280;50299;49.524;8.536;2023-05-23T12:01:52;100698.63;;;16.17;51.33
64053;BME280;50299;49.524;8.536;2023-05-23T12:04:18;100703.03;;;16.53;49.80
64053;BME280;50299;49.524;8.536;2023-05-23T12:06:46;100703.66;;;16.79;49.88
64053;BME280;50299;49.524;8.536;2023-05-23T12:09:16;100696.38;;;16.93;47.68
64053;BME280;50299;49.524;8.536;2023-05-23T12:11:43;100697.78;;;17.03;48.54
64053;BME280;50299;49.524;8.536;2023-05-23T12:14:15;100688.16;;;17.00;48.50
64053;BME280;50299;49.524;8.536;2023-05-23T12:16:43;100687.50;;;16.37;48.62
64053;BME280;50299;49.524;8.536;2023-05-23T12:19:15;100694.31;;;16.71;48.57
64053;BME280;50299;49.524;8.536;2023-05-23T12:21:43;100700.03;;;16.43;48.20
64053;BME280;50299;49.524;8.536;2023-05-23T12:24:14;100697.19;;;16.08;49.44
64053;BME280;50299;49.524;8.536;2023-05-23T12:27:09;100687.25;;;16.77;47.91
64053;BME280;50299;49.524;8.536;2023-05-23T12:29:35;100694.09;;;16.80;47.18
64053;BME280;50299;49.524;8.536;2023-05-23T12:32:05;100696.03;;;16.60;48.39
64053;BME280;50299;49.524;8.536;2023-05-23T12:34:33;100696.44;;;16.77;47.86
64053;BME280;50299;49.524;8.536;2023-05-23T12:37:00;100705.53;;;16.23;48.61
64053;BME280;50299;49.524;8.536;2023-05-23T12:39:33;100710.28;;;17.29;46.31
64053;BME280;50299;49.524;8.536;2023-05-23T12:42:08;100695.66;;;17.78;46.29
64053;BME280;50299;49.524;8.536;2023-05-23T12:44:39;100700.03;;;17.79;45.11
64053;BME280;50299;49.524;8.536;2023-05-23T12:47:07;100704.00;;;17.35;46.95
64053;BME280;50299;49.524;8.536;2023-05-23T12:49:34;100698.59;;;17.88;46.27
64053;BME280;50299;49.524;8.536;2023-05-23T12:52:01;100699.47;;;17.92;46.93
64053;BME280;50299;49.524;8.536;2023-05-23T12:54:27;100695.28;;;17.17;46.85
64053;BME280;50299;49.524;8.536;2023-05-23T12:56:54;100700.66;;;17.91;45.40
64053;BME280;50299;49.524;8.536;2023-05-23T12:59:27;100695.06;;;17.45;46.45
64053;BME280;50299;49.524;8.536;2023-05-23T13:01:53;100692.75;;;17.32;46.38
64053;BME280;50299;49.524;8.536;2023-05-23T13:04:20;100691.34;;;17.61;46.86
64053;BME280;50299;49.524;8.536;2023-05-23T13:06:47;100685.22;;;18.01;45.32
64053;BME280;50299;49.524;8.536;2023-05-23T13:09:14;100690.31;;;18.15;45.00
64053;BME280;50299;49.524;8.536;2023-05-23T13:11:41;100685.78;;;18.63;45.37
64053;BME280;50299;49.524;8.536;2023-05-23T13:14:08;100692.16;;;18.34;44.03
64053;BME280;50299;49.524;8.536;2023-05-23T13:16:34;100685.22;;;18.01;44.09